createdAt,value
2023-04-23T00:00:27.922Z,39.21
2023-04-23T00:02:56.589Z,39.46
2023-04-23T00:05:27.489Z,39.53
2023-04-23T00:07:55.961Z,39.62
2023-04-23T00:10:25.408Z,39.82
2023-04-23T00:12:54.026Z,40.04
2023-04-23T00:15:22.848Z,40.19
2023-04-23T00:17:53.853Z,40.42
2023-04-23T00:20:23.242Z,40.52
2023-04-23T00:22:51.812Z,40.70
2023-04-23T00:25:20.534Z,41.00
2023-04-23T00:27:49.195Z,40.97
2023-04-23T00:30:19.980Z,41.04
2023-04-23T00:32:48.979Z,41.10
2023-04-23T00:35:18.710Z,41.29
2023-04-23T00:37:47.908Z,41.29
2023-04-23T00:40:16.561Z,41.52
2023-04-23T00:42:45.350Z,41.76
2023-04-23T00:45:14.250Z,41.72
2023-04-23T00:47:42.642Z,41.85
2023-04-23T00:50:13.461Z,42.03
2023-04-23T00:52:41.921Z,42.08
2023-04-23T00:55:10.356Z,42.29
2023-04-23T00:57:38.999Z,42.22
2023-04-23T01:00:08.256Z,42.39
2023-04-23T01:02:39.397Z,42.60
2023-04-23T01:05:09.394Z,42.52
2023-04-23T01:07:39.103Z,42.57
2023-04-23T01:10:08.106Z,42.66
2023-04-23T01:12:36.953Z,42.70
2023-04-23T01:15:06.356Z,42.82
2023-04-23T01:17:35.373Z,42.85
2023-04-23T01:20:06.821Z,42.84
2023-04-23T01:22:38.330Z,43.11
2023-04-23T01:25:10.474Z,43.23
2023-04-23T01:27:39.406Z,43.27
2023-04-23T01:30:08.966Z,43.19
2023-04-23T01:32:38.061Z,43.52
2023-04-23T01:35:09.313Z,43.63
2023-04-23T01:37:37.837Z,43.98
2023-04-23T01:40:09.182Z,44.02
2023-04-23T01:42:37.608Z,44.05
2023-04-23T01:45:08.256Z,44.10
2023-04-23T01:47:40.005Z,44.16
2023-04-23T01:50:11.022Z,44.10
2023-04-23T01:52:40.684Z,44.13
2023-04-23T01:55:09.774Z,44.21
2023-04-23T01:57:38.793Z,44.40
2023-04-23T02:00:12.998Z,44.58
2023-04-23T02:02:42.813Z,44.67
2023-04-23T02:05:13.380Z,44.72
2023-04-23T02:07:43.984Z,44.66
2023-04-23T02:10:12.702Z,44.40
2023-04-23T02:12:45.060Z,44.29
2023-04-23T02:15:14.769Z,44.16
2023-04-23T02:17:43.257Z,44.11
2023-04-23T02:20:11.982Z,44.00
2023-04-23T02:22:44.442Z,44.13
2023-04-23T02:25:15.809Z,43.96
2023-04-23T02:27:45.374Z,44.32
2023-04-23T02:30:14.008Z,44.47
2023-04-23T02:32:43.254Z,44.58
2023-04-23T02:35:12.667Z,44.73
2023-04-23T02:37:43.463Z,44.93
2023-04-23T02:40:19.112Z,45.13
2023-04-23T02:42:47.427Z,45.27
2023-04-23T02:45:16.032Z,45.37
2023-04-23T02:47:46.092Z,45.21
2023-04-23T02:50:14.571Z,45.12
2023-04-23T02:52:44.332Z,45.27
2023-04-23T02:55:14.803Z,45.43
2023-04-23T02:57:45.517Z,45.66
2023-04-23T03:00:15.329Z,45.48
2023-04-23T03:02:45.567Z,45.68
2023-04-23T03:05:14.749Z,45.75
2023-04-23T03:07:43.527Z,45.74
2023-04-23T03:10:12.642Z,45.61
2023-04-23T03:12:41.542Z,45.85
2023-04-23T03:15:11.820Z,45.88
2023-04-23T03:17:40.735Z,46.14
2023-04-23T03:20:15.269Z,45.98
2023-04-23T03:22:44.379Z,45.56
2023-04-23T03:25:16.763Z,45.42
2023-04-23T03:27:46.861Z,45.13
2023-04-23T03:30:15.257Z,45.01
2023-04-23T03:32:45.298Z,44.82
2023-04-23T03:35:18.033Z,44.93
2023-04-23T03:37:51.750Z,45.06
2023-04-23T03:40:21.127Z,45.06
2023-04-23T03:42:53.307Z,44.70
2023-04-23T03:45:31.303Z,45.12
2023-04-23T03:48:03.196Z,45.03
2023-04-23T03:50:39.152Z,44.80
2023-04-23T03:53:18.317Z,44.49
2023-04-23T03:56:19.185Z,44.21
2023-04-23T03:58:57.781Z,43.93
2023-04-23T04:01:26.611Z,44.00
2023-04-23T04:03:55.642Z,43.76
2023-04-23T04:06:26.599Z,43.51
2023-04-23T04:09:02.353Z,43.58
2023-04-23T04:11:32.883Z,43.50
2023-04-23T04:14:01.379Z,43.52
2023-04-23T04:16:30.236Z,43.33
2023-04-23T04:18:58.777Z,43.30
2023-04-23T04:21:28.447Z,43.06
2023-04-23T04:23:57.399Z,42.72
2023-04-23T04:26:25.658Z,42.48
2023-04-23T04:28:54.141Z,42.33
2023-04-23T04:31:22.466Z,41.99
2023-04-23T04:33:51.218Z,41.85
2023-04-23T04:36:19.896Z,41.72
2023-04-23T04:38:48.543Z,41.51
2023-04-23T04:41:17.230Z,41.29
2023-04-23T04:43:47.384Z,41.12
2023-04-23T04:46:15.801Z,41.04
2023-04-23T04:48:44.178Z,41.03
2023-04-23T04:51:12.576Z,40.87
2023-04-23T04:53:41.337Z,40.71
2023-04-23T04:56:09.666Z,40.39
2023-04-23T04:58:38.359Z,40.32
2023-04-23T05:01:08.287Z,40.21
2023-04-23T05:03:37.878Z,40.23
2023-04-23T05:06:07.027Z,40.12
2023-04-23T05:08:35.931Z,39.78
2023-04-23T05:11:04.625Z,39.63
2023-04-23T05:13:34.434Z,39.45
2023-04-23T05:16:04.732Z,39.28
2023-04-23T05:18:33.345Z,39.19
2023-04-23T05:21:09.135Z,39.22
2023-04-23T05:23:48.213Z,38.96
2023-04-23T05:26:18.454Z,39.16
2023-04-23T05:28:47.011Z,39.20
2023-04-23T05:31:16.583Z,39.16
2023-04-23T05:33:50.499Z,38.91
2023-04-23T05:36:19.296Z,38.76
2023-04-23T05:38:48.007Z,38.64
2023-04-23T05:41:16.403Z,38.62
2023-04-23T05:43:45.109Z,38.80
2023-04-23T05:46:14.476Z,38.74
2023-04-23T05:48:43.952Z,38.50
2023-04-23T05:51:13.355Z,38.43
2023-04-23T05:53:42.535Z,38.39
2023-04-23T05:56:14.825Z,38.45
2023-04-23T05:58:43.432Z,38.29
2023-04-23T06:01:11.898Z,38.12
2023-04-23T06:03:45.748Z,37.94
2023-04-23T06:06:17.052Z,37.81
2023-04-23T06:08:46.277Z,37.06
2023-04-23T06:11:16.802Z,36.24
2023-04-23T06:13:47.225Z,35.58
2023-04-23T06:16:16.614Z,34.63
2023-04-23T06:18:45.327Z,33.78
2023-04-23T06:21:14.913Z,33.00
2023-04-23T06:23:44.143Z,32.10
2023-04-23T06:26:12.529Z,31.15
2023-04-23T06:28:47.267Z,30.35
2023-04-23T06:31:28.273Z,29.39
2023-04-23T06:33:57.197Z,28.89
2023-04-23T06:36:26.679Z,28.30
2023-04-23T06:38:56.469Z,27.89
2023-04-23T06:41:24.974Z,27.23
2023-04-23T06:44:06.650Z,26.85
2023-04-23T06:46:43.387Z,26.06
2023-04-23T06:49:14.673Z,25.33
2023-04-23T06:51:44.397Z,25.10
2023-04-23T06:54:13.327Z,24.85
2023-04-23T06:56:41.909Z,24.88
2023-04-23T06:59:10.644Z,24.99
2023-04-23T07:01:48.987Z,24.93
2023-04-23T07:04:17.809Z,24.91
2023-04-23T07:06:46.321Z,25.07
2023-04-23T07:09:16.382Z,25.05
2023-04-23T07:11:45.528Z,24.41
2023-04-23T07:14:15.831Z,24.06
2023-04-23T07:16:44.802Z,23.82
2023-04-23T07:19:13.373Z,23.49
2023-04-23T07:21:42.410Z,22.99
2023-04-23T07:24:11.502Z,22.30
2023-04-23T07:26:40.281Z,22.29
2023-04-23T07:29:10.868Z,22.39
2023-04-23T07:31:41.840Z,22.41
2023-04-23T07:34:10.290Z,22.11
2023-04-23T07:36:38.676Z,22.40
2023-04-23T07:39:07.113Z,22.29
2023-04-23T07:41:35.950Z,22.38
2023-04-23T07:44:04.800Z,22.30
2023-04-23T07:46:34.118Z,21.91
2023-04-23T07:49:02.699Z,21.71
2023-04-23T07:51:32.214Z,21.44
2023-04-23T07:54:01.137Z,21.46
2023-04-23T07:56:32.776Z,21.36
2023-04-23T07:59:01.361Z,21.42
2023-04-23T08:01:30.172Z,20.60
2023-04-23T08:04:00.985Z,20.33
2023-04-23T08:06:35.367Z,20.29
2023-04-23T08:09:07.766Z,20.54
2023-04-23T08:11:37.149Z,20.69
2023-04-23T08:14:06.855Z,20.77
2023-04-23T08:16:38.801Z,20.95
2023-04-23T08:19:07.821Z,20.90
2023-04-23T08:21:37.654Z,21.03
2023-04-23T08:24:08.062Z,21.05
2023-04-23T08:26:40.766Z,20.97
2023-04-23T08:29:11.001Z,20.90
2023-04-23T08:31:41.886Z,19.68
2023-04-23T08:34:10.354Z,19.74
2023-04-23T08:36:40.402Z,20.00
2023-04-23T08:39:09.490Z,20.00
2023-04-23T08:41:43.112Z,19.85
2023-04-23T08:44:18.782Z,19.63
2023-04-23T08:46:47.434Z,19.33
2023-04-23T08:49:17.733Z,19.32
2023-04-23T08:51:55.367Z,19.40
2023-04-23T08:54:27.866Z,19.18
2023-04-23T08:57:00.017Z,19.06
2023-04-23T08:59:31.145Z,18.89
2023-04-23T09:02:02.037Z,18.96
2023-04-23T09:04:31.912Z,18.66
2023-04-23T09:07:01.849Z,18.11
2023-04-23T09:09:30.725Z,18.32
2023-04-23T09:11:59.114Z,18.62
2023-04-23T09:14:30.856Z,19.00
2023-04-23T09:16:59.586Z,18.99
2023-04-23T09:19:28.582Z,18.93
2023-04-23T09:22:02.213Z,18.73
2023-04-23T09:24:30.812Z,18.73
2023-04-23T09:26:59.324Z,18.67
2023-04-23T09:29:28.692Z,18.53
2023-04-23T09:32:08.499Z,18.45
2023-04-23T09:34:40.431Z,18.59
2023-04-23T09:37:11.191Z,18.96
2023-04-23T09:39:40.743Z,18.37
2023-04-23T09:42:12.855Z,18.10
2023-04-23T09:44:41.506Z,18.31
2023-04-23T09:47:10.305Z,18.12
2023-04-23T09:49:50.872Z,18.26
2023-04-23T09:52:23.587Z,18.29
2023-04-23T09:54:52.065Z,18.10
2023-04-23T09:57:20.538Z,17.93
2023-04-23T09:59:53.118Z,18.20
2023-04-23T10:02:29.627Z,17.52
2023-04-23T10:05:10.053Z,17.46
2023-04-23T10:07:45.835Z,17.59
2023-04-23T10:10:15.297Z,17.55
2023-04-23T10:13:07.723Z,17.22
2023-04-23T10:15:38.182Z,17.20
2023-04-23T10:18:07.236Z,17.24
2023-04-23T10:20:36.203Z,16.87
2023-04-23T10:23:05.309Z,17.05
2023-04-23T10:25:36.587Z,17.02
2023-04-23T10:28:08.698Z,17.00
2023-04-23T10:30:37.227Z,16.83
2023-04-23T10:33:18.793Z,16.60
2023-04-23T10:35:57.509Z,16.71
2023-04-23T10:38:28.465Z,16.74
2023-04-23T10:40:57.469Z,16.61
2023-04-23T10:43:27.744Z,16.77
2023-04-23T10:45:56.952Z,16.99
2023-04-23T10:48:28.681Z,17.18
2023-04-23T10:51:17.430Z,17.30
2023-04-23T10:53:48.451Z,17.76
2023-04-23T10:56:19.341Z,17.87
2023-04-23T10:58:50.817Z,17.45
2023-04-23T11:01:22.343Z,17.09
2023-04-23T11:03:52.168Z,17.20
2023-04-23T11:07:00.944Z,17.16
2023-04-23T11:09:49.301Z,16.99
2023-04-23T11:12:21.189Z,16.81
2023-04-23T11:14:54.950Z,16.99
2023-04-23T11:17:24.334Z,17.16
2023-04-23T11:20:14.263Z,17.38
2023-04-23T11:22:44.226Z,17.12
2023-04-23T11:25:19.839Z,17.36
2023-04-23T11:27:51.147Z,17.90
2023-04-23T11:30:21.636Z,18.29
2023-04-23T11:32:52.236Z,18.49
2023-04-23T11:35:23.410Z,18.36
2023-04-23T11:37:51.998Z,18.39
2023-04-23T11:40:21.091Z,18.50
2023-04-23T11:42:54.053Z,18.35
2023-04-23T11:45:22.445Z,18.17
2023-04-23T11:47:57.840Z,18.40
2023-04-23T11:50:33.338Z,18.40
2023-04-23T11:53:07.534Z,18.43
2023-04-23T11:55:36.385Z,18.55
2023-04-23T11:58:04.906Z,18.60
2023-04-23T12:00:36.094Z,18.64
2023-04-23T12:03:06.645Z,19.00
2023-04-23T12:05:37.651Z,19.41
2023-04-23T12:08:33.241Z,19.92
2023-04-23T12:11:06.407Z,20.28
2023-04-23T12:13:35.273Z,20.86
2023-04-23T12:16:05.058Z,21.00
2023-04-23T12:18:41.654Z,21.01
2023-04-23T12:21:14.185Z,20.85
2023-04-23T12:23:51.975Z,21.18
2023-04-23T12:26:21.613Z,21.33
2023-04-23T12:28:53.969Z,21.35
2023-04-23T12:31:27.302Z,21.22
2023-04-23T12:34:20.541Z,21.40
2023-04-23T12:36:53.362Z,21.42
2023-04-23T12:39:32.245Z,21.52
2023-04-23T12:42:07.557Z,21.72
2023-04-23T12:44:38.510Z,21.83
2023-04-23T12:47:08.844Z,21.87
2023-04-23T12:49:40.306Z,21.64
2023-04-23T12:52:10.915Z,21.79
2023-04-23T12:54:44.926Z,21.93
2023-04-23T12:57:14.580Z,22.08
2023-04-23T12:59:45.391Z,22.08
2023-04-23T13:02:14.057Z,22.08
2023-04-23T13:04:47.237Z,22.24
2023-04-23T13:07:19.084Z,21.89
2023-04-23T13:09:48.172Z,21.90
2023-04-23T13:12:17.756Z,21.82
2023-04-23T13:14:46.183Z,21.65
2023-04-23T13:17:15.571Z,21.54
2023-04-23T13:19:45.026Z,21.90
2023-04-23T13:22:15.832Z,22.25
2023-04-23T13:24:44.252Z,22.27
2023-04-23T13:27:12.720Z,22.22
2023-04-23T13:29:41.611Z,22.17
2023-04-23T13:32:11.346Z,22.11
2023-04-23T13:34:39.749Z,22.20
2023-04-23T13:37:10.007Z,22.28
2023-04-23T13:39:41.488Z,22.29
2023-04-23T13:42:10.559Z,22.32
2023-04-23T13:44:39.111Z,22.14
2023-04-23T13:47:09.341Z,22.42
2023-04-23T13:49:37.844Z,22.65
2023-04-23T13:52:07.417Z,22.49
2023-04-23T13:54:36.356Z,22.47
2023-04-23T13:57:06.226Z,22.38
2023-04-23T13:59:36.656Z,22.32
2023-04-23T14:02:06.081Z,22.34
2023-04-23T14:04:35.634Z,22.44
2023-04-23T14:07:06.654Z,22.46
2023-04-23T14:09:36.755Z,22.49
2023-04-23T14:12:06.323Z,22.52
2023-04-23T14:14:35.524Z,22.64
2023-04-23T14:17:03.912Z,22.66
2023-04-23T14:19:36.380Z,22.74
2023-04-23T14:22:06.910Z,22.95
2023-04-23T14:24:40.546Z,23.03
2023-04-23T14:27:09.317Z,23.14
2023-04-23T14:29:41.801Z,23.11
2023-04-23T14:32:10.747Z,23.16
2023-04-23T14:41:17.478Z,23.39
2023-04-23T14:43:44.695Z,23.52
2023-04-23T14:46:11.843Z,23.67
2023-04-23T14:48:39.697Z,23.56
2023-04-23T14:51:07.158Z,23.60
2023-04-23T14:53:34.335Z,23.49
2023-04-23T14:56:01.613Z,23.52
2023-04-23T14:58:30.113Z,23.65
2023-04-23T15:00:58.981Z,23.79
2023-04-23T15:03:27.987Z,23.88
2023-04-23T15:05:55.472Z,24.03
2023-04-23T15:08:23.607Z,24.27
2023-04-23T15:10:51.971Z,24.30
2023-04-23T15:13:41.601Z,24.37
2023-04-23T15:19:12.211Z,24.61
2023-04-23T15:21:42.909Z,24.78
2023-04-23T15:24:12.998Z,24.89
2023-04-23T15:26:41.136Z,25.00
2023-04-23T15:29:12.183Z,25.24
2023-04-23T15:31:40.869Z,25.37
2023-04-23T15:34:09.627Z,25.48
2023-04-23T15:36:38.159Z,25.56
2023-04-23T15:39:06.737Z,25.74
2023-04-23T15:49:33.533Z,26.22
2023-04-23T15:52:00.714Z,26.39
2023-04-23T15:54:27.887Z,26.42
2023-04-23T15:56:57.206Z,26.52
2023-04-23T15:59:24.403Z,26.60
2023-04-23T16:01:52.494Z,26.76
2023-04-23T16:04:19.825Z,26.97
2023-04-23T16:06:47.577Z,27.17
2023-04-23T16:09:14.629Z,27.33
2023-04-23T16:11:41.814Z,27.40
2023-04-23T16:14:11.826Z,27.55
2023-04-23T16:16:39.238Z,27.39
2023-04-23T16:19:06.626Z,27.33
2023-04-23T16:21:35.497Z,27.25
2023-04-23T16:24:03.343Z,27.27
2023-04-23T16:26:31.339Z,27.23
2023-04-23T16:29:11.152Z,27.13
2023-04-23T16:31:47.142Z,27.06
2023-04-23T16:34:16.093Z,27.21
2023-04-23T16:36:43.400Z,27.28
2023-04-23T16:39:11.531Z,27.24
2023-04-23T16:41:38.937Z,27.24
2023-04-23T16:44:06.185Z,27.25
2023-04-23T16:46:33.957Z,27.33
2023-04-23T16:49:01.176Z,27.32
2023-04-23T16:51:30.264Z,27.49
2023-04-23T16:53:57.398Z,27.50
2023-04-23T16:56:27.660Z,27.55
2023-04-23T16:58:54.778Z,27.83
2023-04-23T17:01:23.015Z,27.91
2023-04-23T17:03:50.379Z,28.03
2023-04-23T17:06:28.342Z,28.08
2023-04-23T17:08:56.044Z,28.10
2023-04-23T17:11:23.474Z,28.19
2023-04-23T17:13:54.228Z,28.38
2023-04-23T17:16:21.562Z,28.41
2023-04-23T17:18:49.017Z,28.46
2023-04-23T17:21:17.410Z,28.51
2023-04-23T17:23:46.031Z,28.56
2023-04-23T17:26:13.277Z,28.53
2023-04-23T17:28:43.391Z,28.57
2023-04-23T17:31:12.697Z,28.63
2023-04-23T17:33:40.718Z,28.64
2023-04-23T17:36:08.127Z,28.66
2023-04-23T17:38:36.670Z,28.61
2023-04-23T17:41:04.207Z,28.68
2023-04-23T17:43:36.073Z,28.67
2023-04-23T17:46:04.025Z,28.66
2023-04-23T17:48:31.444Z,28.58
2023-04-23T17:50:58.920Z,28.58
2023-04-23T17:53:26.242Z,28.56
2023-04-23T17:55:58.689Z,28.60
2023-04-23T17:58:27.299Z,28.71
2023-04-23T18:00:54.581Z,28.73
2023-04-23T18:03:22.422Z,28.79
2023-04-23T18:05:50.910Z,28.75
2023-04-23T18:08:19.679Z,28.72
2023-04-23T18:10:47.017Z,28.79
2023-04-23T18:13:14.263Z,28.79
2023-04-23T18:15:47.599Z,28.84
2023-04-23T18:18:17.104Z,28.86
2023-04-23T18:20:46.439Z,28.94
2023-04-23T18:23:14.987Z,28.97
2023-04-23T18:25:42.462Z,29.03
2023-04-23T18:28:13.281Z,29.12
2023-04-23T18:30:40.565Z,29.16
2023-04-23T18:33:16.262Z,29.26
2023-04-23T18:35:47.458Z,29.36
2023-04-23T18:38:51.813Z,29.53
2023-04-23T18:41:20.087Z,29.63
2023-04-23T18:43:47.186Z,29.81
2023-04-23T18:46:14.410Z,30.04
2023-04-23T18:49:06.035Z,30.29
2023-04-23T18:51:38.925Z,30.46
2023-04-23T18:54:06.557Z,30.52
2023-04-23T18:56:37.649Z,30.72
2023-04-23T18:59:05.109Z,30.96
2023-04-23T19:01:32.923Z,31.07
2023-04-23T19:04:00.288Z,31.28
2023-04-23T19:06:28.167Z,31.35
2023-04-23T19:08:56.206Z,31.53
2023-04-23T19:11:23.505Z,31.63
2023-04-23T19:13:51.216Z,31.57
2023-04-23T19:16:19.466Z,31.67
2023-04-23T19:18:46.848Z,31.75
2023-04-23T19:21:16.450Z,31.78
2023-04-23T19:23:43.584Z,31.86
2023-04-23T19:26:10.808Z,32.00
2023-04-23T19:28:40.063Z,31.94
2023-04-23T19:31:08.307Z,32.23
2023-04-23T19:33:37.082Z,32.40
2023-04-23T19:36:04.575Z,33.28
2023-04-23T19:38:31.718Z,34.13
2023-04-23T19:40:59.047Z,33.70
2023-04-23T19:43:26.205Z,33.45
2023-04-23T19:45:53.589Z,33.37
2023-04-23T19:48:21.485Z,33.23
2023-04-23T19:50:48.987Z,33.11
2023-04-23T19:53:17.280Z,33.10
2023-04-23T19:55:45.494Z,33.02
2023-04-23T19:58:13.025Z,32.91
2023-04-23T20:00:41.665Z,32.98
2023-04-23T20:03:09.263Z,32.99
2023-04-23T20:05:37.595Z,32.97
2023-04-23T20:08:08.377Z,32.84
2023-04-23T20:10:38.408Z,32.68
2023-04-23T20:13:05.940Z,32.86
2023-04-23T20:15:33.552Z,32.74
2023-04-23T20:18:00.738Z,32.65
2023-04-23T20:20:27.909Z,32.72
2023-04-23T20:22:56.469Z,32.83
2023-04-23T20:25:25.622Z,32.82
2023-04-23T20:27:53.328Z,32.75
2023-04-23T20:30:20.821Z,32.79
2023-04-23T20:32:50.166Z,32.81
2023-04-23T20:35:17.339Z,32.83
2023-04-23T20:37:44.503Z,32.87
2023-04-23T20:40:12.201Z,32.98
2023-04-23T20:42:39.476Z,33.08
2023-04-23T20:45:08.253Z,33.00
2023-04-23T20:47:35.414Z,33.07
2023-04-23T20:50:02.986Z,33.16
2023-04-23T20:52:35.556Z,33.18
2023-04-23T20:55:07.138Z,33.33
2023-04-23T20:57:34.900Z,33.37
2023-04-23T21:00:02.185Z,33.47
2023-04-23T21:02:29.605Z,33.54
2023-04-23T21:04:56.680Z,33.57
2023-04-23T21:07:23.736Z,33.55
2023-04-23T21:09:50.971Z,33.45
2023-04-23T21:12:18.064Z,33.50
2023-04-23T21:14:45.193Z,33.47
2023-04-23T21:17:12.410Z,33.56
2023-04-23T21:19:39.611Z,33.56
2023-04-23T21:22:08.020Z,33.78
2023-04-23T21:24:35.234Z,33.49
2023-04-23T21:27:03.959Z,33.45
2023-04-23T21:29:33.197Z,33.46
2023-04-23T21:32:00.538Z,33.34
2023-04-23T21:34:29.698Z,33.32
2023-04-23T21:36:57.145Z,33.41
2023-04-23T21:39:24.391Z,33.42
2023-04-23T21:41:51.564Z,33.48
2023-04-23T21:44:18.927Z,33.61
2023-04-23T21:46:46.954Z,33.68
2023-04-23T21:49:14.072Z,33.74
2023-04-23T21:51:41.301Z,33.80
2023-04-23T21:54:09.499Z,34.00
2023-04-23T21:56:36.656Z,33.93
2023-04-23T21:59:04.192Z,34.13
2023-04-23T22:01:32.579Z,34.08
2023-04-23T22:04:01.898Z,34.18
2023-04-23T22:06:30.619Z,34.25
2023-04-23T22:08:58.041Z,34.36
2023-04-23T22:11:26.250Z,34.51
2023-04-23T22:13:53.834Z,34.45
2023-04-23T22:16:28.661Z,34.51
2023-04-23T22:18:59.432Z,34.56
2023-04-23T22:21:26.563Z,34.60
2023-04-23T22:23:53.696Z,34.63
2023-04-23T22:26:22.174Z,34.66
2023-04-23T22:28:50.383Z,34.71
2023-04-23T22:31:18.629Z,34.82
2023-04-23T22:33:45.832Z,34.75
2023-04-23T22:36:14.175Z,35.07
2023-04-23T22:38:41.517Z,35.30
2023-04-23T22:41:08.813Z,35.46
2023-04-23T22:43:35.933Z,35.42
2023-04-23T22:46:02.989Z,35.37
2023-04-23T22:48:31.018Z,35.34
2023-04-23T22:50:58.109Z,35.36
2023-04-23T22:53:26.043Z,35.30
2023-04-23T22:55:53.259Z,35.48
2023-04-23T22:58:22.432Z,35.56
2023-04-23T23:00:50.907Z,35.79
2023-04-23T23:03:19.321Z,35.92
2023-04-23T23:05:46.534Z,35.89
2023-04-23T23:08:13.730Z,36.33
2023-04-23T23:10:41.005Z,36.44
2023-04-23T23:13:09.374Z,36.46
2023-04-23T23:15:36.480Z,36.56
2023-04-23T23:18:06.187Z,36.53
2023-04-23T23:20:33.431Z,36.27
2023-04-23T23:23:00.808Z,36.19
2023-04-23T23:25:28.215Z,36.01
2023-04-23T23:27:55.391Z,36.01
2023-04-23T23:30:22.612Z,35.76
2023-04-23T23:32:49.726Z,35.71
2023-04-23T23:35:18.944Z,35.70
2023-04-23T23:37:46.769Z,35.56
2023-04-23T23:40:13.888Z,35.27
2023-04-23T23:42:40.990Z,35.29
2023-04-23T23:45:10.073Z,35.11
2023-04-23T23:47:37.378Z,35.29
2023-04-23T23:50:04.739Z,35.57
2023-04-23T23:52:32.009Z,35.53
2023-04-23T23:54:59.113Z,35.81
2023-04-23T23:57:26.270Z,36.00
2023-04-23T23:59:53.394Z,36.18
